Time;durP1;ratioP1;P1;durP2;ratioP2;P2;SDS_P1;SDS_P2;PMS_P1;PMS_P2;Temp;Humidity;BMP_temperature;BMP_pressure;BME280_temperature;BME280_humidity;BME280_pressure;Samples;Min_cycle;Max_cycle;Signal;HPM_P1;HPM_P2
2023/12/14 00:02:24;;;;;;;68.03;65.30;;;;;;;;;;5040745;28;20498;-82
2023/12/14 00:04:52;;;;;;;107.40;103.72;;;;;;;;;;5040648;28;20057;-82
2023/12/14 00:07:19;;;;;;;113.80;110.03;;;;;;;;;;5052724;28;20045;-82
2023/12/14 00:09:45;;;;;;;125.15;120.93;;;;;;;;;;5052378;28;20049;-82
2023/12/14 00:12:12;;;;;;;86.53;83.40;;;;;;;;;;5046291;28;20045;-82
2023/12/14 00:14:38;;;;;;;101.55;97.93;;;;;;;;;;5032330;28;20073;-82
2023/12/14 00:17:05;;;;;;;117.03;113.15;;;;;;;;;;5032477;28;20549;-82
2023/12/14 00:19:31;;;;;;;118.15;114.28;;;;;;;;;;5037136;28;20048;-81
2023/12/14 00:21:59;;;;;;;112.43;108.57;;;;;;;;;;5051116;28;20114;-80
2023/12/14 00:24:25;;;;;;;107.60;104.00;;;;;;;;;;5033117;28;20045;-81
2023/12/14 00:26:52;;;;;;;81.20;78.35;;;;;;;;;;5032748;28;20096;-81
2023/12/14 00:29:18;;;;;;;86.07;83.20;;;;;;;;;;5032785;28;20460;-82
2023/12/14 00:31:45;;;;;;;74.40;71.80;;;;;;;;;;5035638;28;20098;-82
2023/12/14 00:34:11;;;;;;;66.45;64.00;;;;;;;;;;5039579;28;20444;-81
2023/12/14 00:36:38;;;;;;;89.03;86.10;;;;;;;;;;5049520;28;20098;-82
2023/12/14 00:39:06;;;;;;;102.68;99.28;;;;;;;;;;5056042;28;20055;-81
2023/12/14 00:41:32;;;;;;;78.72;76.00;;;;;;;;;;5054680;28;20132;-82
2023/12/14 00:43:59;;;;;;;96.47;93.32;;;;;;;;;;5044555;28;20046;-80
2023/12/14 00:46:25;;;;;;;100.10;96.72;;;;;;;;;;5035916;28;20053;-82
2023/12/14 00:48:52;;;;;;;84.88;81.25;;;;;;;;;;5036112;28;20053;-80
2023/12/14 00:51:18;;;;;;;82.72;79.70;;;;;;;;;;5035984;28;20433;-82
2023/12/14 00:53:45;;;;;;;97.65;94.40;;;;;;;;;;5043148;28;20049;-82
2023/12/14 00:56:13;;;;;;;98.03;94.78;;;;;;;;;;5035436;28;20387;-82
2023/12/14 00:58:39;;;;;;;98.53;95.03;;;;;;;;;;5050631;28;20115;-78
2023/12/14 01:01:06;;;;;;;94.65;91.30;;;;;;;;;;5055017;28;20048;-78
2023/12/14 01:03:32;;;;;;;96.05;92.80;;;;;;;;;;5053275;28;20049;-78
2023/12/14 01:05:59;;;;;;;95.35;92.15;;;;;;;;;;5034486;28;20049;-78
2023/12/14 01:08:25;;;;;;;87.15;84.13;;;;;;;;;;5034667;28;20053;-78
2023/12/14 01:10:52;;;;;;;81.32;78.38;;;;;;;;;;5034592;28;20115;-78
2023/12/14 01:13:20;;;;;;;103.40;99.95;;;;;;;;;;5036812;28;20049;-77
2023/12/14 01:15:46;;;;;;;91.68;88.50;;;;;;;;;;5059222;28;20052;-83
2023/12/14 01:18:13;;;;;;;93.65;90.40;;;;;;;;;;5063391;28;20045;-82
2023/12/14 01:20:40;;;;;;;85.55;82.43;;;;;;;;;;5058679;28;20057;-82
2023/12/14 01:23:09;;;;;;;87.32;84.25;;;;;;;;;;5054741;28;20053;-82
2023/12/14 01:25:35;;;;;;;81.32;78.38;;;;;;;;;;5046960;28;20107;-83
2023/12/14 01:28:02;;;;;;;80.22;76.78;;;;;;;;;;5034667;28;20111;-81
2023/12/14 01:30:30;;;;;;;85.30;82.18;;;;;;;;;;5035083;28;20104;-81
2023/12/14 01:32:56;;;;;;;67.03;64.47;;;;;;;;;;5044572;28;20053;-81
2023/12/14 01:35:23;;;;;;;91.75;88.65;;;;;;;;;;5047275;28;20053;-81
2023/12/14 01:37:49;;;;;;;70.35;67.72;;;;;;;;;;5034558;28;20433;-81
2023/12/14 01:40:17;;;;;;;80.60;77.53;;;;;;;;;;5035548;28;20053;-81
2023/12/14 01:42:43;;;;;;;95.68;92.60;;;;;;;;;;5042461;28;20091;-82
2023/12/14 01:45:10;;;;;;;94.28;91.00;;;;;;;;;;5051963;28;20118;-80
2023/12/14 01:47:38;;;;;;;91.00;88.00;;;;;;;;;;5034515;28;20052;-81
2023/12/14 01:50:05;;;;;;;79.55;76.78;;;;;;;;;;5034987;28;20041;-82
2023/12/14 01:52:32;;;;;;;74.55;71.85;;;;;;;;;;5034912;28;20049;-81
2023/12/14 01:54:58;;;;;;;101.65;98.20;;;;;;;;;;5038079;28;20049;-80
2023/12/14 01:57:25;;;;;;;86.60;82.75;;;;;;;;;;5039402;28;20439;-79
2023/12/14 01:59:51;;;;;;;106.03;102.10;;;;;;;;;;5039640;28;20052;-80
2023/12/14 02:02:18;;;;;;;121.63;117.80;;;;;;;;;;5053374;28;20065;-79
2023/12/14 02:04:46;;;;;;;105.70;102.28;;;;;;;;;;5053457;28;20565;-79
2023/12/14 02:07:12;;;;;;;95.45;92.30;;;;;;;;;;5040832;28;20506;-79
2023/12/14 02:09:39;;;;;;;105.38;101.88;;;;;;;;;;5033686;28;20154;-79
2023/12/14 02:12:06;;;;;;;95.13;91.70;;;;;;;;;;5033532;28;20188;-79
2023/12/14 02:14:33;;;;;;;114.50;110.63;;;;;;;;;;5033725;28;20055;-82
2023/12/14 02:16:59;;;;;;;109.72;105.95;;;;;;;;;;5044046;28;20135;-81
2023/12/14 02:19:26;;;;;;;99.97;96.63;;;;;;;;;;5053327;28;20456;-79
2023/12/14 02:21:54;;;;;;;101.22;97.90;;;;;;;;;;5053289;28;20095;-79
2023/12/14 02:24:21;;;;;;;114.25;110.28;;;;;;;;;;5053288;28;20106;-80
2023/12/14 02:26:48;;;;;;;117.55;113.70;;;;;;;;;;5049710;28;20060;-79
2023/12/14 02:29:15;;;;;;;101.65;98.15;;;;;;;;;;5033214;28;20111;-79
2023/12/14 02:31:41;;;;;;;103.65;100.07;;;;;;;;;;5033435;28;20111;-79
2023/12/14 02:34:08;;;;;;;99.80;96.53;;;;;;;;;;5033009;28;20471;-79
2023/12/14 02:36:34;;;;;;;120.07;116.30;;;;;;;;;;5050665;28;20056;-80
2023/12/14 02:39:01;;;;;;;116.72;113.05;;;;;;;;;;5036826;28;20556;-79
2023/12/14 02:41:28;;;;;;;101.50;97.97;;;;;;;;;;5035791;28;20049;-79
2023/12/14 02:43:55;;;;;;;100.07;96.75;;;;;;;;;;5044646;28;20611;-79
2023/12/14 02:46:21;;;;;;;102.63;99.18;;;;;;;;;;5054687;28;20103;-78
2023/12/14 02:48:48;;;;;;;116.18;112.47;;;;;;;;;;5042726;28;20053;-80
2023/12/14 02:51:15;;;;;;;94.32;91.20;;;;;;;;;;5034835;28;20057;-80
2023/12/14 02:53:42;;;;;;;123.32;119.43;;;;;;;;;;5033848;28;20049;-79
2023/12/14 02:56:10;;;;;;;110.13;106.55;;;;;;;;;;5034111;28;20049;-81
2023/12/14 02:58:38;;;;;;;117.93;114.10;;;;;;;;;;5044524;28;20387;-81
2023/12/14 03:01:05;;;;;;;112.32;108.60;;;;;;;;;;5052723;28;20551;-82
2023/12/14 03:03:31;;;;;;;122.53;118.45;;;;;;;;;;5052573;28;20053;-82
2023/12/14 03:05:58;;;;;;;114.18;110.47;;;;;;;;;;5052515;28;20049;-82
2023/12/14 03:08:24;;;;;;;102.88;99.55;;;;;;;;;;5049002;28;20048;-83
2023/12/14 03:10:51;;;;;;;99.57;96.30;;;;;;;;;;5032503;28;20053;-83
2023/12/14 03:13:17;;;;;;;109.28;105.70;;;;;;;;;;5032535;28;20045;-80
2023/12/14 03:15:45;;;;;;;109.30;105.72;;;;;;;;;;5045999;28;20558;-82
2023/12/14 03:18:13;;;;;;;101.50;98.20;;;;;;;;;;5051837;28;20102;-81
2023/12/14 03:20:39;;;;;;;108.28;104.70;;;;;;;;;;5035335;28;20049;-81
2023/12/14 03:23:06;;;;;;;108.85;105.13;;;;;;;;;;5033603;28;20103;-82
2023/12/14 03:25:32;;;;;;;96.30;93.15;;;;;;;;;;5038017;28;20053;-83
2023/12/14 03:27:59;;;;;;;114.18;110.55;;;;;;;;;;5034828;28;20049;-80
2023/12/14 03:30:26;;;;;;;115.88;112.05;;;;;;;;;;5041445;28;20485;-82
2023/12/14 03:32:54;;;;;;;111.20;107.47;;;;;;;;;;5054540;28;20049;-83
2023/12/14 03:35:21;;;;;;;97.22;94.00;;;;;;;;;;5053105;28;20049;-79
2023/12/14 03:37:47;;;;;;;119.88;116.00;;;;;;;;;;5052919;28;20052;-79
2023/12/14 03:40:14;;;;;;;110.13;106.47;;;;;;;;;;5043421;28;20092;-80
2023/12/14 03:42:40;;;;;;;108.03;104.57;;;;;;;;;;5032554;28;20119;-81
2023/12/14 03:45:07;;;;;;;113.95;110.40;;;;;;;;;;5043436;28;20486;-83
2023/12/14 03:47:34;;;;;;;89.82;86.78;;;;;;;;;;5052549;28;20053;-80
2023/12/14 03:50:02;;;;;;;93.13;90.00;;;;;;;;;;5049988;28;20103;-81
2023/12/14 03:52:31;;;;;;;111.88;108.15;;;;;;;;;;5033583;28;20136;-83
2023/12/14 03:54:57;;;;;;;114.80;111.10;;;;;;;;;;5033681;28;20141;-85
2023/12/14 03:57:24;;;;;;;103.35;99.88;;;;;;;;;;5032989;28;20061;-84
2023/12/14 03:59:50;;;;;;;101.70;98.35;;;;;;;;;;5042455;28;20099;-84
2023/12/14 04:02:17;;;;;;;98.25;94.60;;;;;;;;;;5034438;28;20601;-82
2023/12/14 04:04:43;;;;;;;105.22;101.90;;;;;;;;;;5038212;28;20041;-81
2023/12/14 04:07:11;;;;;;;97.50;94.25;;;;;;;;;;5042142;28;20611;-83
2023/12/14 04:09:37;;;;;;;97.50;94.28;;;;;;;;;;5045260;28;20042;-81
2023/12/14 04:12:04;;;;;;;119.22;115.47;;;;;;;;;;5045929;28;20107;-83
2023/12/14 04:14:31;;;;;;;100.03;96.68;;;;;;;;;;5050310;28;20044;-84
2023/12/14 04:16:57;;;;;;;101.53;98.18;;;;;;;;;;5054887;28;20115;-83
2023/12/14 04:19:24;;;;;;;105.68;102.15;;;;;;;;;;5056497;28;20134;-83
2023/12/14 04:21:50;;;;;;;101.30;97.60;;;;;;;;;;5046519;28;20112;-83
2023/12/14 04:24:18;;;;;;;102.22;98.93;;;;;;;;;;5036872;28;20103;-84
2023/12/14 04:26:45;;;;;;;89.65;86.60;;;;;;;;;;5038396;28;20049;-84
2023/12/14 04:29:11;;;;;;;105.57;102.20;;;;;;;;;;5040228;28;20053;-84
2023/12/14 04:31:38;;;;;;;90.00;87.00;;;;;;;;;;5049248;28;20045;-83
2023/12/14 04:34:04;;;;;;;98.18;94.53;;;;;;;;;;5059821;28;20056;-82
2023/12/14 04:36:31;;;;;;;110.40;106.90;;;;;;;;;;5058280;28;20114;-80
2023/12/14 04:38:57;;;;;;;118.72;114.93;;;;;;;;;;5055031;28;20103;-79
2023/12/14 04:41:25;;;;;;;98.90;95.53;;;;;;;;;;5057619;28;20060;-81
2023/12/14 04:43:51;;;;;;;113.55;109.90;;;;;;;;;;5040210;28;20468;-81
2023/12/14 04:46:18;;;;;;;117.47;113.70;;;;;;;;;;5050400;28;20102;-81
2023/12/14 04:48:44;;;;;;;105.80;102.35;;;;;;;;;;5060840;28;20071;-81
2023/12/14 04:51:14;;;;;;;108.35;104.85;;;;;;;;;;5056005;28;20049;-81
2023/12/14 04:53:40;;;;;;;100.15;96.72;;;;;;;;;;5046960;28;20128;-83
2023/12/14 04:56:10;;;;;;;100.82;97.45;;;;;;;;;;5040259;28;20045;-82
2023/12/14 04:58:38;;;;;;;102.18;98.43;;;;;;;;;;5049344;28;20427;-83
2023/12/14 05:01:05;;;;;;;120.10;115.88;;;;;;;;;;5044488;28;20057;-79
2023/12/14 05:03:31;;;;;;;119.28;115.30;;;;;;;;;;5050415;28;20052;-79
2023/12/14 05:05:58;;;;;;;106.43;102.90;;;;;;;;;;5054401;28;20455;-79
2023/12/14 05:08:25;;;;;;;115.38;111.70;;;;;;;;;;5054640;28;20201;-79
2023/12/14 05:10:51;;;;;;;106.30;102.85;;;;;;;;;;5054520;28;20080;-79
2023/12/14 05:13:18;;;;;;;92.43;89.43;;;;;;;;;;5049145;28;20045;-78
2023/12/14 05:15:46;;;;;;;94.40;91.13;;;;;;;;;;5034456;28;20053;-78
2023/12/14 05:18:12;;;;;;;123.28;119.40;;;;;;;;;;5039203;28;20099;-79
2023/12/14 05:20:39;;;;;;;110.38;106.70;;;;;;;;;;5054493;28;20049;-78
2023/12/14 05:23:05;;;;;;;129.52;125.43;;;;;;;;;;5053399;28;20102;-79
2023/12/14 05:25:32;;;;;;;103.15;99.72;;;;;;;;;;5034483;28;20049;-79
2023/12/14 05:27:58;;;;;;;124.63;120.70;;;;;;;;;;5034135;28;20383;-79
2023/12/14 05:30:25;;;;;;;110.53;106.95;;;;;;;;;;5034293;28;20057;-79
2023/12/14 05:32:52;;;;;;;118.55;114.63;;;;;;;;;;5036049;28;20064;-79
2023/12/14 05:35:19;;;;;;;127.78;123.70;;;;;;;;;;5038349;28;20107;-79
2023/12/14 05:37:45;;;;;;;101.72;98.43;;;;;;;;;;5054017;28;20045;-80
2023/12/14 05:40:12;;;;;;;103.60;100.10;;;;;;;;;;5054219;28;20045;-81
2023/12/14 05:42:39;;;;;;;109.15;105.47;;;;;;;;;;5054008;28;20456;-81
2023/12/14 05:45:06;;;;;;;119.90;116.05;;;;;;;;;;5043469;28;20049;-80
2023/12/14 05:47:34;;;;;;;118.28;114.28;;;;;;;;;;5049691;28;20520;-80
2023/12/14 05:50:02;;;;;;;104.88;101.43;;;;;;;;;;5054133;28;20052;-81
2023/12/14 05:52:29;;;;;;;96.40;93.15;;;;;;;;;;5053367;28;20045;-81
2023/12/14 05:54:55;;;;;;;121.57;117.65;;;;;;;;;;5047878;28;20053;-81
2023/12/14 05:57:22;;;;;;;124.95;120.97;;;;;;;;;;5035132;28;20461;-82
2023/12/14 05:59:48;;;;;;;127.50;123.53;;;;;;;;;;5034653;28;20486;-82
2023/12/14 06:02:15;;;;;;;107.53;103.70;;;;;;;;;;5034441;28;20050;-83
2023/12/14 06:04:41;;;;;;;104.75;101.15;;;;;;;;;;5046605;28;20060;-82
2023/12/14 06:07:09;;;;;;;104.43;101.00;;;;;;;;;;5034326;28;20486;-82
2023/12/14 06:09:35;;;;;;;105.20;101.60;;;;;;;;;;5036159;28;20506;-83
2023/12/14 06:12:02;;;;;;;111.82;108.15;;;;;;;;;;5039230;28;20045;-81
2023/12/14 06:14:29;;;;;;;105.63;102.05;;;;;;;;;;5053629;28;20053;-81
2023/12/14 06:16:55;;;;;;;114.55;110.82;;;;;;;;;;5038769;28;20556;-82
2023/12/14 06:19:22;;;;;;;112.57;108.90;;;;;;;;;;5037141;28;20041;-81
2023/12/14 06:21:49;;;;;;;97.40;94.10;;;;;;;;;;5054276;28;20106;-82
2023/12/14 06:24:17;;;;;;;113.68;109.97;;;;;;;;;;5053958;28;20060;-82
2023/12/14 06:26:43;;;;;;;117.68;113.88;;;;;;;;;;5042138;28;20053;-82
2023/12/14 06:29:10;;;;;;;127.65;123.57;;;;;;;;;;5032685;28;20362;-80
2023/12/14 06:31:37;;;;;;;132.57;128.25;;;;;;;;;;5052333;28;20049;-82
2023/12/14 06:34:04;;;;;;;110.47;106.80;;;;;;;;;;5053576;28;20060;-84
2023/12/14 06:36:30;;;;;;;119.90;115.95;;;;;;;;;;5054147;28;20125;-83
2023/12/14 06:38:57;;;;;;;117.60;113.63;;;;;;;;;;5056794;28;20103;-80
2023/12/14 06:41:25;;;;;;;120.30;116.40;;;;;;;;;;5057835;28;20056;-83
2023/12/14 06:43:52;;;;;;;133.80;129.38;;;;;;;;;;5054079;28;20053;-84
2023/12/14 06:46:18;;;;;;;143.27;138.75;;;;;;;;;;5052148;28;20052;-83
2023/12/14 06:48:45;;;;;;;136.75;132.30;;;;;;;;;;5048429;28;20049;-84
2023/12/14 06:51:12;;;;;;;113.97;110.18;;;;;;;;;;5044200;28;20118;-82
2023/12/14 06:53:40;;;;;;;122.63;118.55;;;;;;;;;;5042452;28;20045;-83
2023/12/14 06:56:09;;;;;;;123.47;119.25;;;;;;;;;;5041845;28;20053;-81
2023/12/14 06:58:37;;;;;;;133.73;129.43;;;;;;;;;;5048195;28;20045;-78
2023/12/14 07:01:03;;;;;;;137.77;133.27;;;;;;;;;;5051909;28;20087;-78
2023/12/14 07:03:30;;;;;;;138.88;134.48;;;;;;;;;;5052000;28;20463;-78
2023/12/14 07:05:57;;;;;;;134.30;129.80;;;;;;;;;;5051736;28;20102;-78
2023/12/14 07:08:24;;;;;;;131.90;127.53;;;;;;;;;;5050605;28;20089;-78
2023/12/14 07:10:50;;;;;;;120.95;116.93;;;;;;;;;;5051062;28;20122;-79
2023/12/14 07:13:17;;;;;;;127.22;123.05;;;;;;;;;;5051543;28;20099;-77
2023/12/14 07:15:44;;;;;;;137.02;132.55;;;;;;;;;;5052057;28;20098;-78
2023/12/14 07:18:11;;;;;;;131.82;126.95;;;;;;;;;;5051003;28;20099;-78
2023/12/14 07:20:37;;;;;;;153.50;147.95;;;;;;;;;;5051820;28;20118;-78
2023/12/14 07:23:04;;;;;;;139.02;134.07;;;;;;;;;;5051785;28;20061;-81
2023/12/14 07:25:30;;;;;;;130.10;125.60;;;;;;;;;;5052387;28;20129;-79
2023/12/14 07:27:57;;;;;;;140.23;135.50;;;;;;;;;;5050447;28;20049;-78
2023/12/14 07:30:23;;;;;;;155.75;150.77;;;;;;;;;;5051605;28;20049;-78
2023/12/14 07:32:52;;;;;;;136.20;131.63;;;;;;;;;;5051122;28;20114;-78
2023/12/14 07:35:18;;;;;;;145.60;140.88;;;;;;;;;;5051384;28;20049;-78
2023/12/14 07:37:45;;;;;;;135.85;131.32;;;;;;;;;;5050596;28;20041;-79
2023/12/14 07:40:12;;;;;;;150.57;145.48;;;;;;;;;;5044570;28;20440;-78
2023/12/14 07:42:38;;;;;;;160.55;155.55;;;;;;;;;;5051220;28;20099;-79
2023/12/14 07:45:05;;;;;;;149.25;144.27;;;;;;;;;;5051211;28;20114;-78
2023/12/14 07:47:32;;;;;;;171.90;166.05;;;;;;;;;;5035081;28;20049;-79
2023/12/14 07:50:00;;;;;;;153.48;148.52;;;;;;;;;;5047705;28;20102;-79
2023/12/14 07:52:26;;;;;;;138.90;134.35;;;;;;;;;;5051432;28;20087;-79
2023/12/14 07:54:53;;;;;;;156.50;151.57;;;;;;;;;;5051434;28;20045;-79
2023/12/14 07:57:19;;;;;;;174.70;169.40;;;;;;;;;;5051166;28;20560;-78
2023/12/14 07:59:46;;;;;;;155.98;151.15;;;;;;;;;;5050134;28;20103;-79
2023/12/14 08:02:12;;;;;;;162.70;157.77;;;;;;;;;;5050756;28;20045;-79
2023/12/14 08:04:39;;;;;;;155.27;150.40;;;;;;;;;;5051336;28;20048;-78
2023/12/14 08:07:07;;;;;;;159.27;154.35;;;;;;;;;;5051406;28;20696;-79
2023/12/14 08:09:34;;;;;;;153.25;148.45;;;;;;;;;;5039709;28;20091;-79
2023/12/14 08:12:00;;;;;;;167.52;162.25;;;;;;;;;;5051326;28;20124;-78
2023/12/14 08:14:26;;;;;;;167.55;162.05;;;;;;;;;;5051753;28;20045;-75
2023/12/14 08:16:53;;;;;;;172.50;167.13;;;;;;;;;;5051271;28;20053;-79
2023/12/14 08:19:19;;;;;;;167.38;162.20;;;;;;;;;;5049611;28;20049;-80
2023/12/14 08:21:46;;;;;;;170.07;164.68;;;;;;;;;;5051055;28;20433;-79
2023/12/14 08:24:14;;;;;;;176.13;170.60;;;;;;;;;;5051355;28;20107;-79
2023/12/14 08:26:40;;;;;;;181.95;176.43;;;;;;;;;;5051209;28;20041;-79
2023/12/14 08:29:07;;;;;;;177.85;172.38;;;;;;;;;;5051214;28;20067;-79
2023/12/14 08:31:33;;;;;;;180.35;175.00;;;;;;;;;;5043459;28;20052;-79
2023/12/14 08:34:00;;;;;;;203.18;197.38;;;;;;;;;;5050317;28;20552;-78
2023/12/14 08:36:27;;;;;;;185.70;180.20;;;;;;;;;;5051215;28;20085;-78
2023/12/14 08:38:54;;;;;;;216.05;209.80;;;;;;;;;;5051175;28;20398;-79
2023/12/14 08:41:22;;;;;;;195.05;189.25;;;;;;;;;;5046462;28;20533;-80
2023/12/14 08:43:48;;;;;;;184.43;178.65;;;;;;;;;;5047248;28;20444;-78
2023/12/14 08:46:15;;;;;;;192.70;186.60;;;;;;;;;;5051133;28;20044;-79
2023/12/14 08:48:41;;;;;;;205.57;199.52;;;;;;;;;;5050912;28;20096;-79
2023/12/14 08:51:08;;;;;;;206.18;199.98;;;;;;;;;;5048673;28;20049;-79
2023/12/14 08:53:34;;;;;;;200.00;194.10;;;;;;;;;;5051548;28;20052;-79
2023/12/14 08:56:02;;;;;;;182.93;177.50;;;;;;;;;;5054336;28;20095;-78
2023/12/14 08:58:30;;;;;;;242.75;236.00;;;;;;;;;;5054142;28;20394;-79
2023/12/14 09:00:56;;;;;;;195.55;189.70;;;;;;;;;;5053582;28;20048;-79
2023/12/14 09:03:23;;;;;;;178.63;173.35;;;;;;;;;;5047683;28;20103;-78
2023/12/14 09:05:49;;;;;;;197.02;191.25;;;;;;;;;;5043298;28;20056;-79
2023/12/14 09:08:16;;;;;;;220.48;214.25;;;;;;;;;;5045773;28;20060;-79
2023/12/14 09:10:42;;;;;;;210.60;204.60;;;;;;;;;;5051902;28;20465;-79
2023/12/14 09:13:09;;;;;;;211.20;205.10;;;;;;;;;;5044239;28;20061;-81
2023/12/14 09:15:37;;;;;;;202.75;196.75;;;;;;;;;;5054089;28;20506;-80
2023/12/14 09:18:03;;;;;;;203.98;198.10;;;;;;;;;;5047886;28;20053;-80
2023/12/14 09:20:31;;;;;;;216.68;210.50;;;;;;;;;;5045251;28;20049;-81
2023/12/14 09:22:57;;;;;;;192.20;186.43;;;;;;;;;;5048278;28;20045;-79
2023/12/14 09:25:24;;;;;;;225.20;218.88;;;;;;;;;;5053250;28;20472;-79
2023/12/14 09:27:50;;;;;;;221.25;215.07;;;;;;;;;;5053435;28;20508;-82
2023/12/14 09:30:17;;;;;;;213.82;207.48;;;;;;;;;;5053340;28;20053;-77
2023/12/14 09:32:45;;;;;;;199.85;194.07;;;;;;;;;;5052572;28;20067;-78
2023/12/14 09:35:11;;;;;;;222.07;215.63;;;;;;;;;;5051329;28;20461;-79
2023/12/14 09:37:38;;;;;;;217.70;211.52;;;;;;;;;;5053810;28;20049;-77
2023/12/14 09:40:05;;;;;;;215.43;209.27;;;;;;;;;;5053967;28;20056;-79
2023/12/14 09:42:37;;;;;;;193.15;187.35;;;;;;;;;;5052472;28;20099;-77
2023/12/14 09:45:04;;;;;;;190.82;185.13;;;;;;;;;;5053679;28;20494;-77
2023/12/14 09:47:30;;;;;;;194.93;189.25;;;;;;;;;;5053631;28;20128;-78
2023/12/14 09:49:59;;;;;;;194.38;188.68;;;;;;;;;;5053722;28;20049;-78
2023/12/14 09:52:26;;;;;;;198.25;192.32;;;;;;;;;;5054084;28;20142;-77
2023/12/14 09:54:52;;;;;;;201.38;195.48;;;;;;;;;;5052523;28;20715;-78
2023/12/14 09:57:19;;;;;;;189.65;183.88;;;;;;;;;;5052648;28;20048;-78
2023/12/14 09:59:51;;;;;;;226.00;219.68;;;;;;;;;;5052842;28;20052;-73
2023/12/14 10:02:18;;;;;;;200.90;195.07;;;;;;;;;;5053373;28;20486;-76
2023/12/14 10:04:44;;;;;;;193.82;188.15;;;;;;;;;;5045850;28;20203;-75
2023/12/14 10:07:12;;;;;;;210.00;204.00;;;;;;;;;;5050253;28;20132;-76
2023/12/14 10:09:39;;;;;;;196.18;190.30;;;;;;;;;;5053036;28;20052;-76
2023/12/14 10:12:06;;;;;;;208.02;202.02;;;;;;;;;;5053057;28;20049;-76
2023/12/14 10:14:33;;;;;;;200.88;194.98;;;;;;;;;;5050804;28;20098;-75
2023/12/14 10:17:00;;;;;;;207.75;201.77;;;;;;;;;;5048350;28;20139;-77
2023/12/14 10:19:27;;;;;;;188.52;182.98;;;;;;;;;;5052760;28;20059;-76
2023/12/14 10:21:53;;;;;;;198.52;192.75;;;;;;;;;;5052889;28;20106;-75
2023/12/14 10:24:21;;;;;;;197.45;191.70;;;;;;;;;;5052081;28;20053;-76
2023/12/14 10:26:48;;;;;;;208.75;202.75;;;;;;;;;;5049918;28;20045;-77
2023/12/14 10:29:14;;;;;;;201.10;195.00;;;;;;;;;;5052713;28;20064;-76
2023/12/14 10:31:41;;;;;;;199.25;193.45;;;;;;;;;;5052810;28;20188;-76
2023/12/14 10:34:08;;;;;;;233.50;227.07;;;;;;;;;;5052404;28;20460;-76
2023/12/14 10:36:35;;;;;;;205.38;199.38;;;;;;;;;;5051699;28;20110;-76
2023/12/14 10:39:02;;;;;;;208.52;202.48;;;;;;;;;;5052002;28;20056;-76
2023/12/14 10:41:32;;;;;;;203.70;197.80;;;;;;;;;;5053023;28;20041;-76
2023/12/14 10:44:01;;;;;;;197.52;191.75;;;;;;;;;;5040590;28;20493;-77
2023/12/14 10:46:28;;;;;;;192.43;186.75;;;;;;;;;;5048010;28;20049;-76
2023/12/14 10:48:55;;;;;;;205.45;199.57;;;;;;;;;;5051724;28;20052;-76
2023/12/14 10:51:24;;;;;;;188.73;183.18;;;;;;;;;;5052389;28;20045;-76
2023/12/14 10:53:51;;;;;;;209.25;203.32;;;;;;;;;;5052324;28;20102;-77
2023/12/14 10:56:18;;;;;;;178.45;173.13;;;;;;;;;;5048543;28;20494;-76
2023/12/14 10:58:51;;;;;;;196.20;190.48;;;;;;;;;;5032168;28;20472;-76
2023/12/14 11:01:20;;;;;;;196.98;191.23;;;;;;;;;;5032360;28;20536;-77
2023/12/14 11:03:47;;;;;;;201.85;195.82;;;;;;;;;;5044955;28;20551;-76
2023/12/14 11:06:22;;;;;;;197.88;192.07;;;;;;;;;;5044066;28;20053;-76
2023/12/14 11:08:48;;;;;;;208.57;202.57;;;;;;;;;;5041610;28;20133;-76
2023/12/14 11:11:20;;;;;;;189.55;183.95;;;;;;;;;;5052301;28;20052;-77
2023/12/14 11:13:52;;;;;;;211.35;205.15;;;;;;;;;;5051951;28;20052;-76
2023/12/14 11:16:20;;;;;;;183.68;178.10;;;;;;;;;;5049865;28;20051;-76
2023/12/14 11:18:47;;;;;;;195.57;189.65;;;;;;;;;;5051308;28;20114;-76
2023/12/14 11:21:18;;;;;;;203.35;197.45;;;;;;;;;;5052100;28;20053;-77
2023/12/14 11:23:45;;;;;;;210.52;204.50;;;;;;;;;;5051783;28;20049;-77
2023/12/14 11:26:11;;;;;;;224.32;217.98;;;;;;;;;;5051312;28;20387;-76
2023/12/14 11:28:41;;;;;;;204.00;198.05;;;;;;;;;;5051419;28;20055;-76
2023/12/14 11:31:10;;;;;;;208.13;201.82;;;;;;;;;;5036184;28;20041;-76
2023/12/14 11:33:37;;;;;;;196.82;191.07;;;;;;;;;;5051381;28;20056;-77
2023/12/14 11:36:04;;;;;;;215.32;209.10;;;;;;;;;;5051733;28;20052;-77
2023/12/14 11:38:32;;;;;;;211.35;205.25;;;;;;;;;;5050988;28;20045;-77
2023/12/14 11:40:59;;;;;;;212.52;206.23;;;;;;;;;;5051287;28;20090;-76
2023/12/14 11:43:26;;;;;;;203.13;197.27;;;;;;;;;;5051120;28;20094;-75
2023/12/14 11:45:53;;;;;;;207.07;201.13;;;;;;;;;;5050829;28;20064;-76
2023/12/14 11:48:21;;;;;;;188.70;183.05;;;;;;;;;;5047338;28;20049;-76
2023/12/14 11:50:47;;;;;;;210.57;204.43;;;;;;;;;;5048505;28;20049;-76
2023/12/14 11:53:14;;;;;;;185.93;180.32;;;;;;;;;;5051413;28;20753;-76
2023/12/14 11:55:42;;;;;;;207.02;201.13;;;;;;;;;;5045744;28;20179;-75
2023/12/14 11:58:09;;;;;;;195.02;189.25;;;;;;;;;;5049139;28;20052;-76
2023/12/14 12:00:37;;;;;;;187.27;181.75;;;;;;;;;;5048132;28;20118;-76
2023/12/14 12:03:10;;;;;;;191.70;186.10;;;;;;;;;;5050305;28;20041;-74
2023/12/14 12:05:39;;;;;;;199.40;193.70;;;;;;;;;;5045544;28;20395;-75
2023/12/14 12:08:06;;;;;;;205.23;199.38;;;;;;;;;;5050721;28;20079;-75
2023/12/14 12:10:32;;;;;;;206.35;200.43;;;;;;;;;;5051544;28;20130;-75
2023/12/14 12:13:02;;;;;;;199.55;193.43;;;;;;;;;;5043356;28;20124;-75
2023/12/14 12:15:29;;;;;;;207.35;201.27;;;;;;;;;;5050779;28;20068;-75
2023/12/14 12:17:55;;;;;;;210.40;204.35;;;;;;;;;;5051204;28;20653;-75
2023/12/14 12:20:22;;;;;;;203.70;197.80;;;;;;;;;;5050901;28;20391;-75
2023/12/14 12:22:50;;;;;;;192.38;186.65;;;;;;;;;;5050663;28;20049;-76
2023/12/14 12:25:16;;;;;;;201.02;195.23;;;;;;;;;;5050839;28;20041;-76
2023/12/14 12:27:44;;;;;;;191.32;185.68;;;;;;;;;;5052102;28;20048;-76
2023/12/14 12:30:11;;;;;;;201.57;195.70;;;;;;;;;;5054394;28;20056;-76
2023/12/14 12:32:38;;;;;;;186.05;180.60;;;;;;;;;;5054382;28;20114;-76
2023/12/14 12:35:05;;;;;;;203.07;197.10;;;;;;;;;;5055155;28;20055;-76
2023/12/14 12:37:31;;;;;;;201.10;195.25;;;;;;;;;;5054349;28;20046;-76
2023/12/14 12:39:59;;;;;;;203.63;197.43;;;;;;;;;;5052988;28;20383;-76
2023/12/14 12:42:25;;;;;;;205.80;199.88;;;;;;;;;;5049063;28;20045;-76
2023/12/14 12:44:52;;;;;;;196.80;191.00;;;;;;;;;;5054780;28;20118;-76
2023/12/14 12:47:19;;;;;;;200.18;194.43;;;;;;;;;;5054485;28;20087;-75
2023/12/14 12:49:45;;;;;;;191.93;186.35;;;;;;;;;;5053645;28;20136;-75
2023/12/14 12:52:12;;;;;;;222.93;216.57;;;;;;;;;;5051061;28;20049;-75
2023/12/14 12:54:39;;;;;;;201.70;195.63;;;;;;;;;;5054671;28;20460;-76
2023/12/14 12:57:07;;;;;;;194.95;189.25;;;;;;;;;;5054175;28;20051;-75
2023/12/14 12:59:34;;;;;;;194.13;188.50;;;;;;;;;;5054692;28;20618;-75
2023/12/14 13:02:02;;;;;;;196.38;190.65;;;;;;;;;;5053069;28;20553;-75
2023/12/14 13:04:30;;;;;;;205.43;199.52;;;;;;;;;;5054476;28;20099;-75
2023/12/14 13:06:57;;;;;;;207.05;201.10;;;;;;;;;;5053935;28;20057;-75
2023/12/14 13:09:23;;;;;;;203.20;197.35;;;;;;;;;;5054919;28;20049;-75
2023/12/14 13:11:50;;;;;;;192.82;187.13;;;;;;;;;;5053470;28;20045;-76
2023/12/14 13:14:18;;;;;;;210.35;204.25;;;;;;;;;;5054104;28;20482;-75
2023/12/14 13:16:44;;;;;;;203.38;197.38;;;;;;;;;;5053970;28;20123;-75
2023/12/14 13:19:11;;;;;;;207.25;201.20;;;;;;;;;;5054586;28;20119;-75
2023/12/14 13:21:37;;;;;;;207.60;201.57;;;;;;;;;;5052208;28;20049;-75
2023/12/14 13:24:04;;;;;;;214.38;208.07;;;;;;;;;;5033896;28;20057;-75
2023/12/14 13:26:30;;;;;;;211.60;205.40;;;;;;;;;;5034230;28;20045;-75
2023/12/14 13:28:57;;;;;;;209.35;203.15;;;;;;;;;;5033936;28;20568;-76
2023/12/14 13:31:25;;;;;;;198.75;192.73;;;;;;;;;;5046029;28;20050;-75
2023/12/14 13:33:53;;;;;;;202.05;196.02;;;;;;;;;;5034007;28;20107;-75
2023/12/14 13:36:19;;;;;;;205.52;199.48;;;;;;;;;;5034216;28;20111;-75
2023/12/14 13:38:47;;;;;;;200.40;194.40;;;;;;;;;;5033548;28;20103;-75
2023/12/14 13:41:13;;;;;;;383.92;374.08;;;;;;;;;;5033138;28;20053;-74
2023/12/14 13:43:40;;;;;;;211.43;205.15;;;;;;;;;;5040956;28;20057;-75
2023/12/14 13:46:06;;;;;;;249.30;241.88;;;;;;;;;;5033420;28;20115;-75
2023/12/14 13:48:34;;;;;;;232.63;226.02;;;;;;;;;;5051530;28;20044;-76
2023/12/14 13:51:00;;;;;;;352.42;343.25;;;;;;;;;;5053574;28;20103;-76
2023/12/14 13:53:27;;;;;;;327.25;318.75;;;;;;;;;;5045084;28;20444;-75
2023/12/14 13:55:53;;;;;;;313.27;304.92;;;;;;;;;;5042389;28;20083;-76